Time;durP1;ratioP1;P1;durP2;ratioP2;P2;SDS_P1;SDS_P2;PMS_P1;PMS_P2;Temp;Humidity;BMP_temperature;BMP_pressure;BME280_temperature;BME280_humidity;BME280_pressure;Samples;Min_cycle;Max_cycle;Signal;HPM_P1;HPM_P2
2023/09/16 00:01:43;;;;;;;13.80;9.30;;;14.60;99.90;;;;;;5069138;28;20040;-56
2023/09/16 00:04:11;;;;;;;14.98;8.48;;;14.70;99.90;;;;;;5065688;28;20445;-60
2023/09/16 00:06:38;;;;;;;15.98;10.07;;;14.60;99.90;;;;;;5055932;28;20033;-61
2023/09/16 00:09:05;;;;;;;19.30;10.98;;;14.70;99.90;;;;;;5057246;28;20068;-60
2023/09/16 00:11:32;;;;;;;16.85;10.88;;;14.80;99.90;;;;;;5056902;28;20037;-59
2023/09/16 00:13:58;;;;;;;17.13;11.15;;;14.80;99.90;;;;;;5060196;28;20044;-61
2023/09/16 00:16:25;;;;;;;17.50;11.23;;;14.80;99.90;;;;;;5061702;28;20055;-57
2023/09/16 00:18:52;;;;;;;16.60;11.13;;;14.90;99.90;;;;;;5070624;28;20036;-60
2023/09/16 00:21:20;;;;;;;21.05;11.43;;;14.90;99.90;;;;;;5063679;28;20094;-60
2023/09/16 00:23:47;;;;;;;16.70;11.07;;;14.80;99.90;;;;;;5062662;28;20386;-61
2023/09/16 00:26:14;;;;;;;18.13;11.27;;;14.90;99.90;;;;;;5070089;28;20374;-61
2023/09/16 00:28:45;;;;;;;16.65;11.82;;;14.80;99.90;;;;;;5061301;28;20033;-60
2023/09/16 00:31:13;;;;;;;;;;;14.90;99.90;;;;;;5069247;28;20102;-61
2023/09/16 00:33:40;;;;;;;17.50;11.23;;;14.80;99.90;;;;;;5072513;28;19972;-59
2023/09/16 00:36:07;;;;;;;14.55;10.07;;;14.80;99.90;;;;;;5055453;28;20412;-59
2023/09/16 00:38:34;;;;;;;18.25;11.25;;;14.90;99.90;;;;;;5056532;28;20048;-59
2023/09/16 00:41:01;;;;;;;16.65;10.25;;;14.80;99.90;;;;;;5055770;28;20532;-61
2023/09/16 00:43:28;;;;;;;20.15;10.60;;;14.80;99.90;;;;;;5070023;28;20063;-60
2023/09/16 00:45:55;;;;;;;15.90;10.20;;;14.80;99.90;;;;;;5072817;28;20048;-60
2023/09/16 00:48:22;;;;;;;12.98;10.00;;;14.80;99.90;;;;;;5069684;28;20417;-60
2023/09/16 00:50:49;;;;;;;12.75;8.95;;;14.90;99.90;;;;;;5073327;28;20036;-58
2023/09/16 00:53:19;;;;;;;12.00;9.05;;;14.90;99.90;;;;;;5072160;28;20044;-60
2023/09/16 00:55:48;;;;;;;15.98;8.73;;;14.90;99.90;;;;;;5066325;28;20045;-61
2023/09/16 00:58:17;;;;;;;14.55;8.10;;;14.90;99.90;;;;;;5072952;28;20044;-58
2023/09/16 01:00:46;;;;;;;12.43;8.00;;;14.90;99.90;;;;;;5062584;28;20049;-61
2023/09/16 01:03:15;;;;;;;13.70;9.02;;;14.90;99.90;;;;;;5068726;28;20056;-61
2023/09/16 01:05:45;;;;;;;13.55;9.13;;;14.80;99.90;;;;;;5070977;28;20041;-60
2023/09/16 01:08:12;;;;;;;11.40;7.90;;;14.80;99.90;;;;;;5073161;28;20132;-60
2023/09/16 01:10:40;;;;;;;14.95;8.73;;;14.80;99.90;;;;;;5064081;28;20048;-61
2023/09/16 01:13:08;;;;;;;13.35;8.20;;;14.80;99.90;;;;;;5072749;28;20136;-59
2023/09/16 01:16:06;;;;;;;14.07;8.00;;;14.80;99.90;;;;;;5068916;28;20072;-60
2023/09/16 01:18:39;;;;;;;14.82;7.82;;;14.80;99.90;;;;;;5056206;28;20080;-61
2023/09/16 01:21:06;;;;;;;14.35;7.75;;;14.70;99.90;;;;;;5065638;28;20471;-60
2023/09/16 01:23:33;;;;;;;11.88;8.20;;;14.80;99.90;;;;;;5070034;28;20052;-59
2023/09/16 01:26:01;;;;;;;12.05;7.70;;;14.70;99.90;;;;;;5053254;28;20103;-58
2023/09/16 01:28:28;;;;;;;10.65;8.05;;;14.70;99.90;;;;;;5069329;28;20366;-61
2023/09/16 01:30:56;;;;;;;12.80;7.47;;;14.70;99.90;;;;;;5072456;28;20106;-62
2023/09/16 01:33:31;;;;;;;10.13;7.68;;;14.80;99.90;;;;;;5064146;28;20075;-60
2023/09/16 01:36:04;;;;;;;13.00;8.43;;;14.70;99.90;;;;;;5073752;28;20124;-61
2023/09/16 01:38:33;;;;;;;13.25;7.28;;;14.60;99.90;;;;;;5070126;28;20055;-61
2023/09/16 01:41:02;;;;;;;9.07;6.72;;;14.60;99.90;;;;;;5068094;28;20063;-60
2023/09/16 01:43:29;;;;;;;15.02;8.20;;;14.60;99.90;;;;;;5071329;28;20048;-57
2023/09/16 01:45:56;;;;;;;11.05;7.28;;;14.60;99.90;;;;;;5068704;28;20669;-59
2023/09/16 01:48:23;;;;;;;9.60;7.22;;;14.60;99.90;;;;;;5053158;28;20136;-58
2023/09/16 01:51:06;;;;;;;12.80;8.02;;;14.60;99.90;;;;;;5067287;28;20460;-60
2023/09/16 01:53:33;;;;;;;12.65;8.45;;;14.60;99.90;;;;;;5071773;28;20052;-62
2023/09/16 01:56:00;;;;;;;12.07;7.90;;;14.60;99.90;;;;;;5068701;28;20045;-59
2023/09/16 01:58:26;;;;;;;10.77;8.00;;;14.50;99.90;;;;;;5071595;28;20059;-60
2023/09/16 02:00:53;;;;;;;14.02;8.68;;;14.60;99.90;;;;;;5067324;28;20052;-61
2023/09/16 02:03:20;;;;;;;13.80;8.57;;;14.60;99.90;;;;;;5068439;28;20037;-59
2023/09/16 02:05:47;;;;;;;13.07;8.77;;;14.60;99.90;;;;;;5062484;28;20121;-59
2023/09/16 02:08:14;;;;;;;;;;;14.60;99.90;;;;;;5071823;28;20051;-60
2023/09/16 02:10:41;;;;;;;13.65;8.85;;;14.60;99.90;;;;;;5069249;28;19935;-62
2023/09/16 02:13:08;;;;;;;12.15;8.27;;;14.60;99.90;;;;;;5071579;28;20045;-61
2023/09/16 02:15:35;;;;;;;13.02;9.00;;;14.60;99.90;;;;;;5069109;28;20040;-58
2023/09/16 02:18:02;;;;;;;15.52;8.20;;;14.60;99.90;;;;;;5071308;28;20056;-56
2023/09/16 02:20:29;;;;;;;12.15;8.30;;;14.60;99.90;;;;;;5070400;28;20135;-57
2023/09/16 02:22:56;;;;;;;14.45;9.43;;;14.60;99.90;;;;;;5071525;28;20053;-60
2023/09/16 02:25:23;;;;;;;14.55;9.82;;;14.60;99.90;;;;;;5063921;28;20050;-61
2023/09/16 02:27:50;;;;;;;14.07;9.60;;;14.60;99.90;;;;;;5072563;28;20075;-61
2023/09/16 02:30:18;;;;;;;16.30;10.07;;;14.60;99.90;;;;;;5071836;28;20121;-59
2023/09/16 02:32:45;;;;;;;13.80;10.32;;;14.60;99.90;;;;;;5069996;28;20058;-59
2023/09/16 02:35:12;;;;;;;13.77;10.32;;;14.60;99.90;;;;;;5072554;28;20083;-60
2023/09/16 02:37:38;;;;;;;13.60;10.07;;;14.50;99.90;;;;;;5069359;28;20059;-60
2023/09/16 02:40:06;;;;;;;15.18;10.13;;;14.50;99.90;;;;;;5064651;28;20374;-60
2023/09/16 02:42:33;;;;;;;16.05;9.90;;;14.50;99.90;;;;;;5071048;28;20551;-60
2023/09/16 02:45:00;;;;;;;13.32;9.73;;;14.50;99.90;;;;;;5070370;28;20139;-61
2023/09/16 02:47:29;;;;;;;13.20;9.30;;;14.50;99.90;;;;;;5065571;28;20037;-61
2023/09/16 02:49:59;;;;;;;14.52;8.98;;;14.50;99.90;;;;;;5070573;28;20044;-61
2023/09/16 02:52:26;;;;;;;13.00;9.57;;;14.50;99.90;;;;;;5070672;28;20040;-60
2023/09/16 02:54:53;;;;;;;14.15;9.75;;;14.50;99.90;;;;;;5070323;28;20041;-62
2023/09/16 02:57:19;;;;;;;14.60;9.65;;;14.50;99.90;;;;;;5062434;28;20998;-61
2023/09/16 02:59:47;;;;;;;15.02;9.05;;;14.40;99.90;;;;;;5070216;28;20041;-60
2023/09/16 03:02:15;;;;;;;15.85;9.43;;;14.40;99.90;;;;;;5057730;28;20055;-62
2023/09/16 03:04:42;;;;;;;15.07;9.00;;;14.40;99.90;;;;;;5050993;28;20044;-62
2023/09/16 03:07:10;;;;;;;14.10;10.05;;;14.40;99.90;;;;;;5059728;28;20064;-61
2023/09/16 03:09:37;;;;;;;16.92;10.32;;;14.50;99.90;;;;;;5055817;28;20090;-61
2023/09/16 03:12:06;;;;;;;14.52;9.70;;;14.50;99.90;;;;;;5054548;28;20079;-62
2023/09/16 03:14:33;;;;;;;14.15;9.20;;;14.60;99.90;;;;;;5051510;28;20053;-61
2023/09/16 03:17:00;;;;;;;15.38;9.82;;;14.50;99.90;;;;;;5071569;28;20036;-61
2023/09/16 03:19:28;;;;;;;13.25;9.15;;;14.60;99.90;;;;;;5063682;28;20037;-59
2023/09/16 03:21:56;;;;;;;12.30;8.88;;;14.60;99.90;;;;;;5070100;28;20045;-62
2023/09/16 03:24:22;;;;;;;12.38;9.55;;;14.50;99.90;;;;;;5064752;28;20409;-61
2023/09/16 03:26:50;;;;;;;14.70;8.27;;;14.50;99.90;;;;;;5061841;28;20115;-61
2023/09/16 03:29:19;;;;;;;;;;;14.50;99.90;;;;;;5069300;28;20048;-61
2023/09/16 03:31:46;;;;;;;14.27;8.95;;;14.50;99.90;;;;;;5068406;28;19967;-60
2023/09/16 03:34:17;;;;;;;12.60;8.52;;;14.40;99.90;;;;;;5049000;28;20041;-62
2023/09/16 03:36:44;;;;;;;13.82;8.60;;;14.40;99.90;;;;;;5071002;28;20036;-61
2023/09/16 03:39:11;;;;;;;12.10;9.05;;;14.30;99.90;;;;;;5063673;28;20044;-61
2023/09/16 03:41:37;;;;;;;16.05;9.25;;;14.30;99.90;;;;;;5064132;28;20040;-61
2023/09/16 03:44:06;;;;;;;12.20;9.00;;;14.30;99.90;;;;;;5054195;28;20074;-62
2023/09/16 03:46:34;;;;;;;11.57;8.48;;;14.30;99.90;;;;;;5064441;28;20037;-62
2023/09/16 03:49:05;;;;;;;15.48;9.48;;;14.30;99.90;;;;;;5070254;28;20067;-61
2023/09/16 03:51:37;;;;;;;13.85;8.80;;;14.20;99.90;;;;;;5061333;28;20078;-62
2023/09/16 03:54:06;;;;;;;13.35;9.32;;;14.20;99.90;;;;;;5061847;28;20132;-62
2023/09/16 03:56:34;;;;;;;12.00;8.35;;;14.20;99.90;;;;;;5064614;28;20050;-61
2023/09/16 03:59:02;;;;;;;14.88;8.30;;;14.20;99.90;;;;;;5071363;28;20044;-62
2023/09/16 04:01:28;;;;;;;14.15;8.45;;;14.20;99.90;;;;;;5067039;28;20044;-62
2023/09/16 04:03:55;;;;;;;12.23;8.20;;;14.20;99.90;;;;;;5071713;28;20072;-60
2023/09/16 04:06:23;;;;;;;14.63;9.07;;;14.20;99.90;;;;;;5053786;28;20428;-61
2023/09/16 04:08:50;;;;;;;14.27;8.93;;;14.20;99.90;;;;;;5069422;28;20461;-61
2023/09/16 04:11:17;;;;;;;12.48;8.48;;;14.20;99.90;;;;;;5068848;28;20068;-61
2023/09/16 04:13:44;;;;;;;12.00;8.50;;;14.30;99.90;;;;;;5061653;28;20037;-62
2023/09/16 04:16:11;;;;;;;16.35;9.10;;;14.10;99.90;;;;;;5061252;28;20049;-60
2023/09/16 04:18:38;;;;;;;13.20;8.18;;;14.10;99.90;;;;;;5071079;28;20075;-61
2023/09/16 04:21:06;;;;;;;13.90;9.07;;;14.10;99.90;;;;;;5069352;28;20068;-62
2023/09/16 04:23:36;;;;;;;14.60;8.38;;;14.00;99.90;;;;;;5069217;28;20078;-62
2023/09/16 04:26:08;;;;;;;15.68;8.93;;;14.00;99.90;;;;;;5063592;28;20409;-60
2023/09/16 04:28:35;;;;;;;15.00;8.85;;;14.00;99.90;;;;;;5069759;28;20055;-61
2023/09/16 04:31:04;;;;;;;12.55;8.82;;;14.00;99.90;;;;;;5067797;28;20592;-60
2023/09/16 04:33:34;;;;;;;13.77;8.30;;;13.90;99.90;;;;;;5068994;28;20067;-61
2023/09/16 04:36:03;;;;;;;;;;;14.10;99.90;;;;;;5061813;28;20040;-61
2023/09/16 04:38:31;;;;;;;12.45;8.40;;;14.10;99.90;;;;;;5060430;28;20021;-62
2023/09/16 04:40:58;;;;;;;10.50;7.55;;;14.00;99.90;;;;;;5069532;28;20516;-61
2023/09/16 04:43:25;;;;;;;12.82;8.15;;;14.10;99.90;;;;;;5069457;28;20041;-61
2023/09/16 04:45:54;;;;;;;14.60;8.82;;;14.00;99.90;;;;;;5069915;28;20040;-61
2023/09/16 04:48:33;;;;;;;15.00;8.38;;;14.00;99.90;;;;;;5066495;28;20052;-61
2023/09/16 04:51:03;;;;;;;13.15;8.00;;;14.10;99.90;;;;;;5069546;28;20044;-59
2023/09/16 04:53:32;;;;;;;13.40;8.40;;;14.10;99.90;;;;;;5067890;28;20068;-60
2023/09/16 04:56:00;;;;;;;13.52;9.27;;;14.10;99.90;;;;;;5061713;28;20060;-61
2023/09/16 04:58:29;;;;;;;13.25;8.75;;;14.10;99.90;;;;;;5069431;28;20045;-61
2023/09/16 05:01:00;;;;;;;13.60;9.32;;;14.00;99.90;;;;;;5067436;28;20135;-62
2023/09/16 05:03:27;;;;;;;11.63;8.65;;;14.00;99.90;;;;;;5069606;28;20041;-62
2023/09/16 05:05:54;;;;;;;12.18;8.10;;;14.00;99.90;;;;;;5058891;28;20516;-61
2023/09/16 05:08:25;;;;;;;12.27;8.05;;;14.00;99.90;;;;;;5069740;28;20037;-62
2023/09/16 05:10:54;;;;;;;12.00;7.57;;;14.10;99.90;;;;;;5059909;28;20632;-61
2023/09/16 05:13:22;;;;;;;12.15;7.72;;;14.00;99.90;;;;;;5069526;28;20131;-61
2023/09/16 05:15:50;;;;;;;12.95;7.70;;;14.00;99.90;;;;;;5063938;28;20448;-61
2023/09/16 05:18:17;;;;;;;11.57;7.68;;;14.00;99.90;;;;;;5073426;28;20459;-62
2023/09/16 05:20:44;;;;;;;14.32;7.72;;;14.00;99.90;;;;;;5055791;28;20065;-62
2023/09/16 05:23:15;;;;;;;15.32;7.80;;;14.00;99.90;;;;;;5064527;28;20040;-62
2023/09/16 05:25:47;;;;;;;12.57;7.80;;;14.00;99.90;;;;;;5063312;28;20082;-61
2023/09/16 05:28:17;;;;;;;11.55;7.15;;;14.00;99.90;;;;;;5072571;28;20051;-62
2023/09/16 05:30:44;;;;;;;11.00;7.70;;;14.00;99.90;;;;;;5057081;28;20043;-61
2023/09/16 05:33:13;;;;;;;12.93;7.38;;;14.00;99.90;;;;;;5066422;28;20052;-62
2023/09/16 05:35:41;;;;;;;10.40;6.95;;;14.00;99.90;;;;;;5070784;28;20116;-61
2023/09/16 05:38:10;;;;;;;12.13;7.75;;;14.10;99.90;;;;;;5072530;28;20478;-60
2023/09/16 05:40:37;;;;;;;10.88;7.63;;;14.10;99.90;;;;;;5060875;28;20489;-62
2023/09/16 05:43:04;;;;;;;17.90;7.90;;;14.00;99.90;;;;;;5044065;28;20610;-61
2023/09/16 05:45:31;;;;;;;14.02;7.28;;;14.00;99.90;;;;;;5069794;28;20086;-62
2023/09/16 05:48:02;;;;;;;15.38;7.72;;;14.10;99.90;;;;;;5072754;28;20127;-62
2023/09/16 05:50:33;;;;;;;12.00;7.75;;;14.00;99.90;;;;;;5068900;28;20044;-61
2023/09/16 05:53:01;;;;;;;13.75;8.30;;;14.00;99.90;;;;;;5055967;28;20052;-60
2023/09/16 05:55:28;;;;;;;11.48;7.63;;;14.10;99.90;;;;;;5073708;28;20040;-62
2023/09/16 05:57:55;;;;;;;12.77;8.23;;;14.00;99.90;;;;;;5064023;28;20067;-61
2023/09/16 06:00:22;;;;;;;15.52;7.78;;;14.10;99.90;;;;;;5059307;28;20040;-62
2023/09/16 06:02:51;;;;;;;10.82;7.55;;;14.00;99.90;;;;;;5068829;28;20482;-60
2023/09/16 06:05:18;;;;;;;11.30;7.95;;;14.00;99.90;;;;;;5072202;28;20066;-61
2023/09/16 06:07:45;;;;;;;11.50;7.10;;;14.00;99.90;;;;;;5071712;28;20040;-61
2023/09/16 06:10:12;;;;;;;10.35;7.07;;;14.00;99.90;;;;;;5068676;28;20075;-60
2023/09/16 06:12:39;;;;;;;10.52;6.38;;;14.10;99.90;;;;;;5060566;28;20068;-60
2023/09/16 06:15:07;;;;;;;8.85;6.13;;;14.10;99.90;;;;;;5065551;28;20568;-62
2023/09/16 06:17:35;;;;;;;10.13;7.00;;;14.10;99.90;;;;;;5071843;28;20074;-59
2023/09/16 06:20:02;;;;;;;8.20;5.70;;;14.10;99.90;;;;;;5070603;28;20039;-61
2023/09/16 06:22:30;;;;;;;7.68;5.63;;;14.10;99.90;;;;;;5067594;28;20539;-60
2023/09/16 06:24:56;;;;;;;11.60;5.35;;;14.10;99.90;;;;;;5071226;28;20385;-61
2023/09/16 06:27:24;;;;;;;9.48;5.70;;;14.20;99.90;;;;;;5071713;28;20036;-61
2023/09/16 06:29:53;;;;;;;10.52;5.80;;;14.30;99.90;;;;;;5070146;28;20033;-59
2023/09/16 06:32:21;;;;;;;8.93;5.93;;;14.50;99.90;;;;;;5071447;28;20041;-61
2023/09/16 06:34:52;;;;;;;9.18;5.70;;;14.60;99.90;;;;;;5061053;28;20048;-62
2023/09/16 06:37:19;;;;;;;11.90;5.85;;;14.80;99.90;;;;;;5071793;28;20072;-62
2023/09/16 06:39:47;;;;;;;8.88;5.30;;;15.00;99.90;;;;;;5060591;28;20045;-60
2023/09/16 06:42:17;;;;;;;7.45;5.68;;;15.10;99.90;;;;;;5060187;28;20029;-61
2023/09/16 06:44:49;;;;;;;10.50;5.90;;;15.30;99.90;;;;;;5068815;28;20135;-60
2023/09/16 06:47:16;;;;;;;9.23;5.97;;;15.40;99.90;;;;;;5072736;28;20036;-61
2023/09/16 06:49:43;;;;;;;7.95;5.90;;;15.60;99.90;;;;;;5072415;28;20072;-60
2023/09/16 06:52:09;;;;;;;10.45;6.85;;;15.70;99.90;;;;;;5066795;28;20032;-61
2023/09/16 06:54:36;;;;;;;12.40;7.20;;;15.80;99.90;;;;;;5072117;28;20032;-61
2023/09/16 06:57:03;;;;;;;8.07;6.45;;;15.90;99.90;;;;;;5064108;28;20040;-62
2023/09/16 06:59:30;;;;;;;9.95;6.82;;;16.00;99.90;;;;;;5059093;28;20461;-60
2023/09/16 07:01:57;;;;;;;11.02;7.30;;;16.10;99.90;;;;;;5059415;28;20124;-59
2023/09/16 07:04:27;;;;;;;10.27;7.20;;;16.10;99.90;;;;;;5059401;28;20110;-62
2023/09/16 07:06:54;;;;;;;11.02;6.85;;;16.10;99.90;;;;;;5052814;28;20068;-61
2023/09/16 07:09:22;;;;;;;6.50;5.85;;;16.00;99.90;;;;;;5054310;28;20037;-62
2023/09/16 07:11:48;;;;;;;;;;;16.20;99.90;;;;;;5051946;28;20608;-62
2023/09/16 07:14:15;;;;;;;11.32;6.30;;;16.20;99.90;;;;;;5053013;28;20403;-62
2023/09/16 07:16:42;;;;;;;8.00;6.28;;;16.30;99.90;;;;;;5059032;28;20041;-62
2023/09/16 07:19:09;;;;;;;12.07;6.22;;;16.40;99.90;;;;;;5060534;28;20047;-60
2023/09/16 07:21:36;;;;;;;9.18;5.78;;;16.60;99.90;;;;;;5061849;28;20036;-61
2023/09/16 07:24:03;;;;;;;7.57;5.18;;;16.60;99.90;;;;;;5061996;28;20028;-61
2023/09/16 07:26:30;;;;;;;7.88;5.65;;;16.80;99.90;;;;;;5062652;28;20490;-61
2023/09/16 07:28:57;;;;;;;8.07;5.85;;;16.90;99.90;;;;;;5059885;28;20048;-60
2023/09/16 07:31:24;;;;;;;9.65;5.78;;;17.00;99.90;;;;;;5060918;28;20033;-61
2023/09/16 07:33:51;;;;;;;10.15;6.15;;;17.10;99.90;;;;;;5062157;28;20040;-60
2023/09/16 07:36:18;;;;;;;8.13;5.53;;;17.20;99.90;;;;;;5060215;28;20040;-62
2023/09/16 07:38:45;;;;;;;10.98;6.05;;;17.20;99.90;;;;;;5061251;28;20056;-61
2023/09/16 07:41:12;;;;;;;9.18;5.97;;;17.30;99.90;;;;;;5060413;28;20037;-61
2023/09/16 07:43:38;;;;;;;8.80;5.45;;;17.40;99.90;;;;;;5061478;28;20044;-62
2023/09/16 07:46:05;;;;;;;11.70;5.97;;;17.50;99.90;;;;;;5055700;28;20452;-62
2023/09/16 07:48:32;;;;;;;13.15;6.03;;;17.60;99.90;;;;;;5062492;28;20067;-62
2023/09/16 07:50:59;;;;;;;6.50;5.18;;;17.70;99.90;;;;;;5060773;28;20486;-62
2023/09/16 07:53:26;;;;;;;6.93;5.10;;;17.80;99.90;;;;;;5061842;28;20120;-62
2023/09/16 07:55:53;;;;;;;7.97;5.53;;;17.90;99.90;;;;;;5057763;28;20045;-62
2023/09/16 07:58:19;;;;;;;7.50;5.32;;;18.00;99.90;;;;;;5054444;28;20048;-62
2023/09/16 08:00:46;;;;;;;8.45;5.30;;;18.10;99.90;;;;;;5058859;28;20041;-62
2023/09/16 08:03:13;;;;;;;9.43;6.22;;;18.10;99.90;;;;;;5059142;28;20087;-62
2023/09/16 08:05:40;;;;;;;10.02;5.38;;;18.30;99.90;;;;;;5060739;28;20036;-62
2023/09/16 08:08:07;;;;;;;6.38;5.13;;;18.40;99.90;;;;;;5060720;28;20033;-61
2023/09/16 08:10:34;;;;;;;9.60;5.38;;;18.50;99.90;;;;;;5058535;28;20036;-61
2023/09/16 08:13:00;;;;;;;6.95;4.40;;;18.60;99.90;;;;;;5064540;28;20047;-57
2023/09/16 08:15:27;;;;;;;7.57;4.80;;;18.70;99.90;;;;;;5064900;28;20492;-61
2023/09/16 08:17:54;;;;;;;7.57;4.95;;;18.80;99.90;;;;;;5061107;28;20459;-62
2023/09/16 08:20:21;;;;;;;7.57;5.25;;;18.90;99.90;;;;;;5057169;28;20401;-62
2023/09/16 08:22:48;;;;;;;6.82;4.40;;;19.00;99.90;;;;;;5060127;28;20385;-62
2023/09/16 08:25:15;;;;;;;7.47;4.47;;;19.00;99.90;;;;;;5058697;28;20033;-60
2023/09/16 08:27:42;;;;;;;8.25;4.95;;;19.10;99.90;;;;;;5059786;28;20041;-61
2023/09/16 08:30:09;;;;;;;7.10;4.25;;;19.20;99.90;;;;;;5057634;28;20116;-62
2023/09/16 08:32:38;;;;;;;;;;;19.40;99.90;;;;;;5061324;28;20033;-60
2023/09/16 08:35:09;;;;;;;4.97;3.90;;;19.50;99.90;;;;;;5059899;28;19921;-62
2023/09/16 08:37:36;;;;;;;7.28;4.57;;;19.60;99.90;;;;;;5060926;28;20039;-62
2023/09/16 08:40:03;;;;;;;;;;;19.80;99.90;;;;;;5061368;28;20417;-62
2023/09/16 08:42:38;;;;;;;6.30;4.38;;;19.90;99.90;;;;;;5060779;28;19941;-62
2023/09/16 08:45:07;;;;;;;8.20;4.63;;;20.00;99.90;;;;;;5059279;28;20036;-62
2023/09/16 08:47:51;;;;;;;6.35;4.10;;;20.00;99.90;;;;;;5061447;28;20047;-60
2023/09/16 08:50:21;;;;;;;4.95;4.07;;;20.10;99.90;;;;;;5061850;28;20106;-62
2023/09/16 08:52:55;;;;;;;5.07;4.05;;;20.20;99.90;;;;;;5064219;28;20096;-62
2023/09/16 08:55:22;;;;;;;4.90;4.40;;;20.30;99.90;;;;;;5061997;28;20064;-62
2023/09/16 08:58:09;;;;;;;5.18;4.28;;;20.40;99.90;;;;;;5063973;28;20040;-62
2023/09/16 09:00:37;;;;;;;6.68;3.83;;;20.50;99.90;;;;;;5062965;28;20540;-62
2023/09/16 09:03:05;;;;;;;6.40;4.22;;;20.80;99.90;;;;;;5062703;28;20036;-62
2023/09/16 09:05:36;;;;;;;5.32;4.10;;;20.80;99.90;;;;;;5064317;28;20378;-62
2023/09/16 09:08:08;;;;;;;4.80;3.83;;;20.80;99.90;;;;;;5061338;28;20037;-59
2023/09/16 09:10:37;;;;;;;5.03;3.92;;;20.90;99.90;;;;;;5064178;28;20123;-62
2023/09/16 09:13:11;;;;;;;6.35;3.92;;;21.20;99.90;;;;;;5062497;28;20049;-62
2023/09/16 09:15:42;;;;;;;4.60;3.90;;;21.40;99.90;;;;;;5062403;28;20047;-62
2023/09/16 09:18:12;;;;;;;4.68;3.85;;;21.50;99.90;;;;;;5062364;28;20063;-60
2023/09/16 09:20:39;;;;;;;10.40;5.10;;;21.60;99.90;;;;;;5059685;28;20120;-62
2023/09/16 09:23:07;;;;;;;6.45;5.13;;;21.60;99.90;;;;;;5060432;28;20080;-62
2023/09/16 09:25:37;;;;;;;5.25;4.00;;;21.70;99.90;;;;;;5064756;28;20033;-61
2023/09/16 09:28:05;;;;;;;4.40;3.60;;;21.70;99.90;;;;;;5060539;28;20041;-61
2023/09/16 09:30:32;;;;;;;5.07;4.00;;;21.70;99.90;;;;;;5062534;28;20037;-62
2023/09/16 09:32:59;;;;;;;;;;;21.80;99.90;;;;;;5061888;28;20124;-62
2023/09/16 09:35:30;;;;;;;5.82;3.83;;;21.90;99.90;;;;;;5064331;28;19932;-61
2023/09/16 09:37:58;;;;;;;4.32;3.92;;;22.00;99.90;;;;;;5062145;28;20047;-62
2023/09/16 09:40:25;;;;;;;5.03;3.97;;;22.20;99.90;;;;;;5062389;28;20537;-62
2023/09/16 09:42:53;;;;;;;6.25;3.63;;;22.30;99.90;;;;;;5060468;28;20061;-60
2023/09/16 09:45:22;;;;;;;6.07;3.88;;;22.40;99.90;;;;;;5065170;28;20039;-62
2023/09/16 09:47:51;;;;;;;4.07;3.55;;;22.40;99.90;;;;;;5068426;28;20393;-62
2023/09/16 09:50:19;;;;;;;7.18;3.42;;;22.40;99.90;;;;;;5060622;28;20676;-62
2023/09/16 09:52:55;;;;;;;4.45;3.90;;;22.60;99.90;;;;;;5060491;28;20040;-61
2023/09/16 09:55:27;;;;;;;5.35;3.60;;;22.60;99.90;;;;;;5060624;28;20065;-62
2023/09/16 09:57:54;;;;;;;5.97;3.35;;;22.60;99.90;;;;;;5073552;28;20066;-62
2023/09/16 10:00:23;;;;;;;4.00;3.58;;;22.70;99.90;;;;;;5070750;28;20045;-61
2023/09/16 10:02:50;;;;;;;6.70;4.15;;;22.90;99.90;;;;;;5071957;28;20410;-62
2023/09/16 10:05:22;;;;;;;7.47;4.07;;;23.00;99.90;;;;;;5073292;28;20413;-62
2023/09/16 10:07:51;;;;;;;6.18;4.30;;;23.10;99.90;;;;;;5073274;28;20044;-62
2023/09/16 10:10:23;;;;;;;4.75;3.65;;;23.20;99.90;;;;;;5066297;28;20572;-62
2023/09/16 10:12:52;;;;;;;5.68;3.75;;;23.30;99.90;;;;;;5073346;28;20040;-61
2023/09/16 10:15:28;;;;;;;4.70;3.40;;;23.30;99.90;;;;;;5073041;28;20029;-62
2023/09/16 10:17:56;;;;;;;9.25;4.88;;;23.50;99.90;;;;;;5069989;28;20509;-61
2023/09/16 10:20:23;;;;;;;5.05;3.67;;;23.40;99.90;;;;;;5072995;28;20481;-61
2023/09/16 10:22:53;;;;;;;;;;;23.30;99.90;;;;;;5069911;28;20044;-62
2023/09/16 10:25:21;;;;;;;4.80;3.78;;;23.30;99.90;;;;;;5073151;28;19920;-62
2023/09/16 10:28:03;;;;;;;4.50;3.83;;;23.10;99.90;;;;;;5071944;28;20047;-62
2023/09/16 10:30:32;;;;;;;4.43;3.40;;;23.10;99.90;;;;;;5066335;28;20500;-62
2023/09/16 10:33:01;;;;;;;3.95;3.15;;;23.10;99.90;;;;;;5071557;28;20045;-62
2023/09/16 10:35:28;;;;;;;5.30;3.53;;;23.30;99.90;;;;;;5068161;28;20044;-62
2023/09/16 10:38:00;;;;;;;4.95;3.50;;;23.50;99.90;;;;;;5061131;28;20485;-62
2023/09/16 10:40:26;;;;;;;4.50;3.53;;;23.70;99.90;;;;;;5062407;28;20055;-62
2023/09/16 10:42:54;;;;;;;;;;;24.00;99.90;;;;;;5063629;28;20041;-62
2023/09/16 10:45:21;;;;;;;4.05;3.50;;;24.20;99.90;;;;;;5063123;28;20372;-62
2023/09/16 10:47:53;;;;;;;8.48;3.70;;;24.30;99.90;;;;;;5061899;28;20043;-62
2023/09/16 10:50:29;;;;;;;4.00;3.33;;;24.40;99.90;;;;;;5062319;28;20067;-62
2023/09/16 10:53:10;;;;;;;3.75;3.45;;;24.40;99.90;;;;;;5063723;28;20559;-62
2023/09/16 10:55:59;;;;;;;6.63;3.60;;;24.50;99.90;;;;;;5059968;28;20068;-62
2023/09/16 10:58:37;;;;;;;6.70;3.65;;;24.60;99.90;;;;;;5062370;28;20045;-62
2023/09/16 11:01:06;;;;;;;4.97;3.00;;;24.50;99.90;;;;;;5063304;28;20048;-63
2023/09/16 11:03:37;;;;;;;10.68;7.05;;;24.60;99.90;;;;;;5060639;28;20033;-62
2023/09/16 11:06:04;;;;;;;4.78;3.45;;;24.70;99.90;;;;;;5058535;28;20128;-62
2023/09/16 11:08:31;;;;;;;;;;;24.80;99.90;;;;;;5053762;28;20037;-62
2023/09/16 11:10:58;;;;;;;5.50;3.90;;;24.90;99.90;;;;;;5060863;28;19964;-62
2023/09/16 11:13:27;;;;;;;4.53;3.50;;;24.90;99.90;;;;;;5059809;28;20119;-62
2023/09/16 11:16:00;;;;;;;3.50;3.13;;;24.80;99.90;;;;;;5053153;28;20271;-62
2023/09/16 11:18:29;;;;;;;4.22;3.45;;;24.80;99.90;;;;;;5052334;28;20397;-62
2023/09/16 11:20:56;;;;;;;2.92;2.70;;;24.90;99.90;;;;;;5056452;28;20045;-62
2023/09/16 11:23:26;;;;;;;4.47;3.38;;;24.90;99.90;;;;;;5062731;28;20405;-63
2023/09/16 11:25:57;;;;;;;3.40;2.95;;;25.00;99.90;;;;;;5060182;28;20047;-59
2023/09/16 11:28:25;;;;;;;4.13;3.58;;;25.00;99.90;;;;;;5059866;28;20067;-61
2023/09/16 11:30:55;;;;;;;6.55;3.50;;;25.00;99.90;;;;;;5059111;28;20064;-61
2023/09/16 11:33:26;;;;;;;4.00;3.30;;;25.10;99.90;;;;;;5061691;28;20076;-61
2023/09/16 11:36:10;;;;;;;3.28;2.97;;;25.20;99.90;;;;;;5060352;28;20036;-61
2023/09/16 11:39:17;;;;;;;3.80;3.47;;;25.10;99.90;;;;;;5057951;28;20060;-60
2023/09/16 11:41:47;;;;;;;4.70;3.70;;;25.20;99.90;;;;;;5070746;28;20435;-60
2023/09/16 11:44:15;;;;;;;10.63;3.63;;;25.20;99.90;;;;;;5070439;28;20044;-61
2023/09/16 11:46:43;;;;;;;4.05;3.63;;;25.10;99.90;;;;;;5062713;28;20070;-61
2023/09/16 11:49:15;;;;;;;3.88;3.35;;;25.20;99.90;;;;;;5069221;28;20538;-61
2023/09/16 11:51:42;;;;;;;3.78;3.35;;;25.30;99.90;;;;;;5064893;28;20486;-60
2023/09/16 11:54:09;;;;;;;4.20;3.67;;;25.40;99.90;;;;;;5060809;28;20401;-61
2023/09/16 11:56:40;;;;;;;3.42;3.13;;;25.50;99.90;;;;;;5062235;28;20043;-62
2023/09/16 11:59:07;;;;;;;3.75;3.35;;;25.50;99.90;;;;;;5062100;28;20047;-61
2023/09/16 12:01:40;;;;;;;6.93;3.15;;;25.40;99.90;;;;;;5059755;28;20110;-61
2023/09/16 12:04:10;;;;;;;3.08;2.78;;;25.30;99.90;;;;;;5059705;28;20722;-61
2023/09/16 12:06:38;;;;;;;4.07;3.67;;;25.30;99.90;;;;;;5059704;28;20659;-61
2023/09/16 12:09:08;;;;;;;3.30;3.00;;;25.40;99.90;;;;;;5056837;28;20511;-61
2023/09/16 12:11:37;;;;;;;4.03;3.17;;;25.50;99.90;;;;;;5059335;28;20116;-61
2023/09/16 12:14:07;;;;;;;3.22;2.83;;;25.80;99.90;;;;;;5056628;28;20474;-61
2023/09/16 12:16:36;;;;;;;3.58;3.28;;;25.90;99.90;;;;;;5065598;28;20045;-61
2023/09/16 12:19:04;;;;;;;4.30;3.33;;;26.00;99.90;;;;;;5061593;28;20090;-61
2023/09/16 12:21:31;;;;;;;7.95;3.58;;;26.00;99.90;;;;;;5060194;28;20041;-61
2023/09/16 12:23:59;;;;;;;4.47;3.85;;;26.00;99.90;;;;;;5060865;28;20051;-60
2023/09/16 12:26:27;;;;;;;4.18;3.78;;;25.80;99.90;;;;;;5063365;28;20489;-62
2023/09/16 12:28:53;;;;;;;5.60;3.25;;;25.70;99.90;;;;;;5064690;28;20051;-62
2023/09/16 12:31:21;;;;;;;;;;;25.70;99.90;;;;;;5064747;28;20446;-62
2023/09/16 12:33:53;;;;;;;;;;;25.70;99.90;;;;;;5066156;28;19929;-62
2023/09/16 12:36:25;;;;;;;12.25;7.30;;;25.60;99.90;;;;;;5064825;28;20403;-62
2023/09/16 12:38:54;;;;;;;6.15;3.60;;;25.60;99.90;;;;;;5064677;28;20049;-63
2023/09/16 12:41:25;;;;;;;3.70;3.35;;;25.50;99.90;;;;;;5064270;28;20060;-61
2023/09/16 12:43:54;;;;;;;3.83;3.22;;;25.40;99.90;;;;;;5055917;28;20033;-60
2023/09/16 12:46:22;;;;;;;4.97;3.70;;;25.40;99.90;;;;;;5061007;28;20120;-61
2023/09/16 12:48:51;;;;;;;3.40;3.10;;;25.40;99.90;;;;;;5062497;28;20039;-62
2023/09/16 12:51:19;;;;;;;4.75;3.38;;;25.50;99.90;;;;;;5058187;28;20123;-62